sensor_id;sensor_type;location;lat;lon;timestamp;P1;durP1;ratioP1;P2;durP2;ratioP2
42538;SDS011;28173;51.376;6.760;2022-10-31T00:01:24;16.17;;;8.40;;
42538;SDS011;28173;51.376;6.760;2022-10-31T00:03:55;17.30;;;8.23;;
42538;SDS011;28173;51.376;6.760;2022-10-31T00:06:22;21.15;;;8.85;;
42538;SDS011;28173;51.376;6.760;2022-10-31T00:08:53;18.15;;;9.00;;
42538;SDS011;28173;51.376;6.760;2022-10-31T00:11:20;15.13;;;9.02;;
42538;SDS011;28173;51.376;6.760;2022-10-31T00:13:47;19.50;;;9.13;;
42538;SDS011;28173;51.376;6.760;2022-10-31T00:16:18;20.80;;;8.32;;
42538;SDS011;28173;51.376;6.760;2022-10-31T00:18:49;17.13;;;8.35;;
42538;SDS011;28173;51.376;6.760;2022-10-31T00:21:20;16.42;;;7.90;;
42538;SDS011;28173;51.376;6.760;2022-10-31T00:23:47;14.95;;;8.38;;
42538;SDS011;28173;51.376;6.760;2022-10-31T00:26:14;16.13;;;8.27;;
42538;SDS011;28173;51.376;6.760;2022-10-31T00:28:41;20.08;;;8.70;;
42538;SDS011;28173;51.376;6.760;2022-10-31T00:31:09;15.60;;;8.82;;
42538;SDS011;28173;51.376;6.760;2022-10-31T00:33:37;17.77;;;8.30;;
42538;SDS011;28173;51.376;6.760;2022-10-31T00:36:05;17.58;;;8.95;;
42538;SDS011;28173;51.376;6.760;2022-10-31T00:38:32;17.65;;;8.43;;
42538;SDS011;28173;51.376;6.760;2022-10-31T00:40:59;14.38;;;8.25;;
42538;SDS011;28173;51.376;6.760;2022-10-31T00:43:26;17.38;;;8.55;;
42538;SDS011;28173;51.376;6.760;2022-10-31T00:45:52;19.95;;;8.77;;
42538;SDS011;28173;51.376;6.760;2022-10-31T00:48:19;18.00;;;8.35;;
42538;SDS011;28173;51.376;6.760;2022-10-31T00:50:47;14.00;;;8.43;;
42538;SDS011;28173;51.376;6.760;2022-10-31T00:53:14;17.83;;;8.10;;
42538;SDS011;28173;51.376;6.760;2022-10-31T00:55:41;13.98;;;8.80;;
42538;SDS011;28173;51.376;6.760;2022-10-31T00:58:08;20.63;;;9.10;;
42538;SDS011;28173;51.376;6.760;2022-10-31T01:00:35;15.18;;;7.95;;
42538;SDS011;28173;51.376;6.760;2022-10-31T01:03:02;15.85;;;8.13;;
42538;SDS011;28173;51.376;6.760;2022-10-31T01:05:29;17.80;;;8.18;;
42538;SDS011;28173;51.376;6.760;2022-10-31T01:07:55;16.55;;;8.65;;
42538;SDS011;28173;51.376;6.760;2022-10-31T01:10:22;17.08;;;8.93;;
42538;SDS011;28173;51.376;6.760;2022-10-31T01:12:50;18.90;;;9.48;;
42538;SDS011;28173;51.376;6.760;2022-10-31T01:15:21;13.27;;;8.68;;
42538;SDS011;28173;51.376;6.760;2022-10-31T01:17:48;17.33;;;8.90;;
42538;SDS011;28173;51.376;6.760;2022-10-31T01:20:16;13.00;;;7.68;;
42538;SDS011;28173;51.376;6.760;2022-10-31T01:22:44;17.35;;;7.60;;
42538;SDS011;28173;51.376;6.760;2022-10-31T01:25:11;22.30;;;8.70;;
42538;SDS011;28173;51.376;6.760;2022-10-31T01:27:38;18.35;;;7.82;;
42538;SDS011;28173;51.376;6.760;2022-10-31T01:30:07;16.90;;;9.23;;
42538;SDS011;28173;51.376;6.760;2022-10-31T01:32:34;19.40;;;9.40;;
42538;SDS011;28173;51.376;6.760;2022-10-31T01:35:00;16.80;;;7.97;;
42538;SDS011;28173;51.376;6.760;2022-10-31T01:37:27;17.00;;;8.32;;
42538;SDS011;28173;51.376;6.760;2022-10-31T01:39:53;18.92;;;8.32;;
42538;SDS011;28173;51.376;6.760;2022-10-31T01:42:21;16.85;;;8.70;;
42538;SDS011;28173;51.376;6.760;2022-10-31T01:47:27;18.95;;;8.48;;
42538;SDS011;28173;51.376;6.760;2022-10-31T01:50:00;15.30;;;7.88;;
42538;SDS011;28173;51.376;6.760;2022-10-31T01:52:31;15.07;;;8.70;;
42538;SDS011;28173;51.376;6.760;2022-10-31T01:55:39;15.73;;;8.45;;
42538;SDS011;28173;51.376;6.760;2022-10-31T01:58:08;17.08;;;8.55;;
42538;SDS011;28173;51.376;6.760;2022-10-31T02:00:37;16.77;;;8.80;;
42538;SDS011;28173;51.376;6.760;2022-10-31T02:03:05;17.20;;;8.90;;
42538;SDS011;28173;51.376;6.760;2022-10-31T02:05:32;17.10;;;8.27;;
42538;SDS011;28173;51.376;6.760;2022-10-31T02:10:37;21.75;;;8.65;;
42538;SDS011;28173;51.376;6.760;2022-10-31T02:13:06;17.15;;;8.68;;
42538;SDS011;28173;51.376;6.760;2022-10-31T02:15:42;18.10;;;8.68;;
42538;SDS011;28173;51.376;6.760;2022-10-31T02:18:11;18.27;;;8.40;;
42538;SDS011;28173;51.376;6.760;2022-10-31T02:26:18;14.63;;;7.65;;
42538;SDS011;28173;51.376;6.760;2022-10-31T02:32:09;16.88;;;7.63;;
42538;SDS011;28173;51.376;6.760;2022-10-31T02:40:29;18.20;;;8.20;;
42538;SDS011;28173;51.376;6.760;2022-10-31T02:43:34;13.90;;;7.57;;
42538;SDS011;28173;51.376;6.760;2022-10-31T02:46:20;14.38;;;8.48;;
42538;SDS011;28173;51.376;6.760;2022-10-31T02:49:15;15.18;;;7.50;;
42538;SDS011;28173;51.376;6.760;2022-10-31T02:57:56;21.88;;;8.05;;
42538;SDS011;28173;51.376;6.760;2022-10-31T03:00:25;15.13;;;8.13;;
42538;SDS011;28173;51.376;6.760;2022-10-31T03:11:23;18.40;;;7.57;;
42538;SDS011;28173;51.376;6.760;2022-10-31T03:14:08;17.02;;;7.90;;
42538;SDS011;28173;51.376;6.760;2022-10-31T03:19:19;17.67;;;8.68;;
42538;SDS011;28173;51.376;6.760;2022-10-31T03:21:55;12.48;;;8.10;;
42538;SDS011;28173;51.376;6.760;2022-10-31T03:24:25;15.48;;;7.97;;
42538;SDS011;28173;51.376;6.760;2022-10-31T03:26:57;22.85;;;9.15;;
42538;SDS011;28173;51.376;6.760;2022-10-31T03:29:26;17.25;;;7.63;;
42538;SDS011;28173;51.376;6.760;2022-10-31T03:31:59;16.33;;;7.93;;
42538;SDS011;28173;51.376;6.760;2022-10-31T03:34:29;21.40;;;8.52;;
42538;SDS011;28173;51.376;6.760;2022-10-31T03:36:57;21.00;;;8.75;;
42538;SDS011;28173;51.376;6.760;2022-10-31T03:39:26;20.27;;;7.93;;
42538;SDS011;28173;51.376;6.760;2022-10-31T03:42:01;18.35;;;8.93;;
42538;SDS011;28173;51.376;6.760;2022-10-31T03:44:32;15.85;;;7.68;;
42538;SDS011;28173;51.376;6.760;2022-10-31T03:47:01;17.48;;;7.78;;
42538;SDS011;28173;51.376;6.760;2022-10-31T03:49:29;14.82;;;8.18;;
42538;SDS011;28173;51.376;6.760;2022-10-31T03:51:58;22.20;;;8.85;;
42538;SDS011;28173;51.376;6.760;2022-10-31T03:54:32;15.52;;;8.10;;
42538;SDS011;28173;51.376;6.760;2022-10-31T03:57:07;14.23;;;7.93;;
42538;SDS011;28173;51.376;6.760;2022-10-31T03:59:45;18.10;;;8.48;;
42538;SDS011;28173;51.376;6.760;2022-10-31T04:02:16;10.35;;;7.90;;
42538;SDS011;28173;51.376;6.760;2022-10-31T04:04:44;14.60;;;8.30;;
42538;SDS011;28173;51.376;6.760;2022-10-31T04:07:11;17.05;;;7.85;;
42538;SDS011;28173;51.376;6.760;2022-10-31T04:09:40;16.95;;;8.20;;
42538;SDS011;28173;51.376;6.760;2022-10-31T04:12:11;18.48;;;8.93;;
42538;SDS011;28173;51.376;6.760;2022-10-31T04:15:10;17.80;;;8.10;;
42538;SDS011;28173;51.376;6.760;2022-10-31T04:17:39;15.02;;;7.88;;
42538;SDS011;28173;51.376;6.760;2022-10-31T04:20:08;12.25;;;8.50;;
42538;SDS011;28173;51.376;6.760;2022-10-31T04:22:35;18.70;;;8.80;;
42538;SDS011;28173;51.376;6.760;2022-10-31T04:25:02;15.63;;;8.60;;
42538;SDS011;28173;51.376;6.760;2022-10-31T04:27:29;14.30;;;8.88;;
42538;SDS011;28173;51.376;6.760;2022-10-31T04:29:55;14.40;;;7.78;;
42538;SDS011;28173;51.376;6.760;2022-10-31T04:32:23;18.98;;;9.13;;
42538;SDS011;28173;51.376;6.760;2022-10-31T04:34:51;15.73;;;8.05;;
42538;SDS011;28173;51.376;6.760;2022-10-31T04:37:18;18.85;;;8.32;;
42538;SDS011;28173;51.376;6.760;2022-10-31T04:39:46;16.70;;;8.75;;
42538;SDS011;28173;51.376;6.760;2022-10-31T04:42:33;15.75;;;8.27;;
42538;SDS011;28173;51.376;6.760;2022-10-31T04:45:02;15.07;;;8.57;;
42538;SDS011;28173;51.376;6.760;2022-10-31T04:47:31;15.70;;;8.10;;
42538;SDS011;28173;51.376;6.760;2022-10-31T04:50:00;15.15;;;8.45;;
42538;SDS011;28173;51.376;6.760;2022-10-31T04:52:27;16.50;;;8.27;;
42538;SDS011;28173;51.376;6.760;2022-10-31T04:54:54;16.80;;;8.27;;
42538;SDS011;28173;51.376;6.760;2022-10-31T04:57:40;22.50;;;8.48;;
42538;SDS011;28173;51.376;6.760;2022-10-31T05:00:10;14.50;;;7.85;;
42538;SDS011;28173;51.376;6.760;2022-10-31T05:02:45;14.90;;;8.40;;
42538;SDS011;28173;51.376;6.760;2022-10-31T05:05:12;16.95;;;8.30;;
42538;SDS011;28173;51.376;6.760;2022-10-31T05:07:44;21.25;;;8.68;;
42538;SDS011;28173;51.376;6.760;2022-10-31T05:10:12;16.25;;;7.55;;
42538;SDS011;28173;51.376;6.760;2022-10-31T05:12:55;18.73;;;7.95;;
42538;SDS011;28173;51.376;6.760;2022-10-31T05:15:38;15.15;;;8.23;;
42538;SDS011;28173;51.376;6.760;2022-10-31T05:18:37;16.08;;;7.90;;
42538;SDS011;28173;51.376;6.760;2022-10-31T05:21:29;20.08;;;8.43;;
42538;SDS011;28173;51.376;6.760;2022-10-31T05:24:01;18.95;;;8.50;;
42538;SDS011;28173;51.376;6.760;2022-10-31T05:26:29;19.95;;;8.48;;
42538;SDS011;28173;51.376;6.760;2022-10-31T05:28:56;18.30;;;8.27;;
42538;SDS011;28173;51.376;6.760;2022-10-31T05:31:22;21.45;;;8.68;;
42538;SDS011;28173;51.376;6.760;2022-10-31T05:33:50;15.05;;;8.30;;
42538;SDS011;28173;51.376;6.760;2022-10-31T05:36:36;15.70;;;8.90;;
42538;SDS011;28173;51.376;6.760;2022-10-31T05:39:10;15.85;;;8.20;;
42538;SDS011;28173;51.376;6.760;2022-10-31T05:41:46;15.75;;;7.78;;
42538;SDS011;28173;51.376;6.760;2022-10-31T05:44:24;22.65;;;7.95;;
42538;SDS011;28173;51.376;6.760;2022-10-31T05:47:11;15.30;;;8.52;;
42538;SDS011;28173;51.376;6.760;2022-10-31T05:49:57;16.88;;;8.88;;
42538;SDS011;28173;51.376;6.760;2022-10-31T05:53:03;18.80;;;8.32;;
42538;SDS011;28173;51.376;6.760;2022-10-31T05:55:37;28.92;;;9.15;;
42538;SDS011;28173;51.376;6.760;2022-10-31T05:58:13;13.63;;;8.43;;
42538;SDS011;28173;51.376;6.760;2022-10-31T06:00:48;20.25;;;9.10;;
42538;SDS011;28173;51.376;6.760;2022-10-31T06:03:15;17.02;;;9.38;;
42538;SDS011;28173;51.376;6.760;2022-10-31T06:05:49;21.00;;;8.85;;
42538;SDS011;28173;51.376;6.760;2022-10-31T06:08:23;19.50;;;9.57;;
42538;SDS011;28173;51.376;6.760;2022-10-31T06:10:50;15.63;;;10.25;;
42538;SDS011;28173;51.376;6.760;2022-10-31T06:13:28;19.77;;;9.50;;
42538;SDS011;28173;51.376;6.760;2022-10-31T06:16:07;16.88;;;9.35;;
42538;SDS011;28173;51.376;6.760;2022-10-31T06:18:36;18.40;;;8.80;;
42538;SDS011;28173;51.376;6.760;2022-10-31T06:21:03;18.05;;;9.15;;
42538;SDS011;28173;51.376;6.760;2022-10-31T06:23:33;14.82;;;9.00;;
42538;SDS011;28173;51.376;6.760;2022-10-31T06:26:25;20.70;;;8.98;;
42538;SDS011;28173;51.376;6.760;2022-10-31T06:28:52;21.23;;;9.43;;
42538;SDS011;28173;51.376;6.760;2022-10-31T06:31:50;21.00;;;8.95;;
42538;SDS011;28173;51.376;6.760;2022-10-31T06:34:24;20.52;;;9.68;;
42538;SDS011;28173;51.376;6.760;2022-10-31T06:36:51;18.42;;;9.10;;
42538;SDS011;28173;51.376;6.760;2022-10-31T06:39:22;18.55;;;10.10;;
42538;SDS011;28173;51.376;6.760;2022-10-31T06:41:49;23.30;;;10.93;;
42538;SDS011;28173;51.376;6.760;2022-10-31T06:44:19;19.15;;;9.27;;
42538;SDS011;28173;51.376;6.760;2022-10-31T06:46:58;16.38;;;9.23;;
42538;SDS011;28173;51.376;6.760;2022-10-31T06:49:30;23.73;;;9.52;;
42538;SDS011;28173;51.376;6.760;2022-10-31T06:52:01;18.63;;;9.73;;
42538;SDS011;28173;51.376;6.760;2022-10-31T06:54:28;18.40;;;9.80;;
42538;SDS011;28173;51.376;6.760;2022-10-31T06:56:55;20.10;;;10.07;;
42538;SDS011;28173;51.376;6.760;2022-10-31T06:59:22;16.92;;;10.27;;
42538;SDS011;28173;51.376;6.760;2022-10-31T07:02:09;21.23;;;9.98;;
42538;SDS011;28173;51.376;6.760;2022-10-31T07:04:41;14.80;;;9.75;;
42538;SDS011;28173;51.376;6.760;2022-10-31T07:07:41;21.42;;;9.43;;
42538;SDS011;28173;51.376;6.760;2022-10-31T07:10:11;21.40;;;10.18;;
42538;SDS011;28173;51.376;6.760;2022-10-31T07:12:55;22.00;;;10.02;;
42538;SDS011;28173;51.376;6.760;2022-10-31T07:15:24;24.58;;;10.38;;
42538;SDS011;28173;51.376;6.760;2022-10-31T07:17:51;20.90;;;10.32;;
42538;SDS011;28173;51.376;6.760;2022-10-31T07:20:21;14.85;;;8.82;;
42538;SDS011;28173;51.376;6.760;2022-10-31T07:22:51;22.40;;;10.23;;
42538;SDS011;28173;51.376;6.760;2022-10-31T07:25:18;33.88;;;10.63;;
42538;SDS011;28173;51.376;6.760;2022-10-31T07:28:15;18.73;;;9.45;;
42538;SDS011;28173;51.376;6.760;2022-10-31T07:31:07;16.13;;;9.85;;
42538;SDS011;28173;51.376;6.760;2022-10-31T07:33:36;22.77;;;10.50;;
42538;SDS011;28173;51.376;6.760;2022-10-31T07:40:43;20.83;;;10.68;;
42538;SDS011;28173;51.376;6.760;2022-10-31T07:46:21;19.42;;;10.05;;
42538;SDS011;28173;51.376;6.760;2022-10-31T07:49:07;17.40;;;10.32;;
42538;SDS011;28173;51.376;6.760;2022-10-31T08:33:08;23.88;;;12.63;;
42538;SDS011;28173;51.376;6.760;2022-10-31T08:36:05;25.90;;;13.25;;
42538;SDS011;28173;51.376;6.760;2022-10-31T08:38:49;23.85;;;13.07;;
42538;SDS011;28173;51.376;6.760;2022-10-31T08:41:16;24.55;;;13.88;;
42538;SDS011;28173;51.376;6.760;2022-10-31T08:43:43;24.80;;;13.40;;
42538;SDS011;28173;51.376;6.760;2022-10-31T08:46:14;26.02;;;13.55;;
42538;SDS011;28173;51.376;6.760;2022-10-31T08:48:46;29.77;;;13.93;;
42538;SDS011;28173;51.376;6.760;2022-10-31T08:51:35;28.27;;;14.20;;
42538;SDS011;28173;51.376;6.760;2022-10-31T08:54:02;33.95;;;15.32;;
42538;SDS011;28173;51.376;6.760;2022-10-31T08:56:40;29.83;;;16.40;;
42538;SDS011;28173;51.376;6.760;2022-10-31T08:59:28;28.00;;;16.40;;
42538;SDS011;28173;51.376;6.760;2022-10-31T09:02:22;24.55;;;15.85;;
42538;SDS011;28173;51.376;6.760;2022-10-31T09:04:52;28.75;;;15.57;;
42538;SDS011;28173;51.376;6.760;2022-10-31T09:07:31;24.90;;;15.10;;
42538;SDS011;28173;51.376;6.760;2022-10-31T09:10:02;29.50;;;15.07;;
42538;SDS011;28173;51.376;6.760;2022-10-31T09:12:53;26.75;;;14.95;;
42538;SDS011;28173;51.376;6.760;2022-10-31T09:15:52;28.02;;;14.10;;
42538;SDS011;28173;51.376;6.760;2022-10-31T09:18:22;168.40;;;123.60;;
42538;SDS011;28173;51.376;6.760;2022-10-31T09:20:59;96.85;;;60.08;;
42538;SDS011;28173;51.376;6.760;2022-10-31T09:23:28;34.40;;;19.42;;
42538;SDS011;28173;51.376;6.760;2022-10-31T09:25:58;119.45;;;85.38;;
42538;SDS011;28173;51.376;6.760;2022-10-31T09:28:36;123.72;;;78.07;;
42538;SDS011;28173;51.376;6.760;2022-10-31T09:31:07;31.20;;;18.05;;
42538;SDS011;28173;51.376;6.760;2022-10-31T09:33:49;57.15;;;40.95;;
42538;SDS011;28173;51.376;6.760;2022-10-31T09:36:47;67.53;;;45.40;;
42538;SDS011;28173;51.376;6.760;2022-10-31T09:39:18;45.55;;;24.27;;
42538;SDS011;28173;51.376;6.760;2022-10-31T09:47:14;20.10;;;13.38;;
42538;SDS011;28173;51.376;6.760;2022-10-31T09:53:03;20.20;;;13.25;;
42538;SDS011;28173;51.376;6.760;2022-10-31T09:56:19;24.35;;;12.50;;
42538;SDS011;28173;51.376;6.760;2022-10-31T09:58:56;24.15;;;12.65;;
42538;SDS011;28173;51.376;6.760;2022-10-31T10:07:13;26.10;;;13.40;;
42538;SDS011;28173;51.376;6.760;2022-10-31T10:10:14;28.52;;;12.82;;
42538;SDS011;28173;51.376;6.760;2022-10-31T10:13:11;25.00;;;13.00;;
42538;SDS011;28173;51.376;6.760;2022-10-31T10:19:07;28.67;;;13.35;;
42538;SDS011;28173;51.376;6.760;2022-10-31T10:22:14;21.88;;;12.43;;
42538;SDS011;28173;51.376;6.760;2022-10-31T10:30:41;23.35;;;12.93;;
42538;SDS011;28173;51.376;6.760;2022-10-31T10:33:39;27.88;;;13.55;;
42538;SDS011;28173;51.376;6.760;2022-10-31T10:36:12;25.85;;;13.32;;
42538;SDS011;28173;51.376;6.760;2022-10-31T10:39:03;23.70;;;13.10;;
42538;SDS011;28173;51.376;6.760;2022-10-31T10:41:32;25.88;;;12.05;;
42538;SDS011;28173;51.376;6.760;2022-10-31T10:44:00;29.67;;;13.48;;
42538;SDS011;28173;51.376;6.760;2022-10-31T10:49:37;28.15;;;13.90;;
42538;SDS011;28173;51.376;6.760;2022-10-31T10:58:07;33.13;;;15.25;;
42538;SDS011;28173;51.376;6.760;2022-10-31T11:00:49;26.98;;;14.18;;
42538;SDS011;28173;51.376;6.760;2022-10-31T11:03:24;30.13;;;15.95;;
42538;SDS011;28173;51.376;6.760;2022-10-31T11:09:32;28.45;;;15.82;;
42538;SDS011;28173;51.376;6.760;2022-10-31T11:15:02;32.58;;;15.00;;
42538;SDS011;28173;51.376;6.760;2022-10-31T11:17:53;30.15;;;14.57;;
42538;SDS011;28173;51.376;6.760;2022-10-31T11:20:39;29.98;;;15.70;;
42538;SDS011;28173;51.376;6.760;2022-10-31T11:23:16;29.77;;;16.17;;
42538;SDS011;28173;51.376;6.760;2022-10-31T11:26:04;29.38;;;15.85;;
42538;SDS011;28173;51.376;6.760;2022-10-31T11:31:27;27.58;;;15.10;;
42538;SDS011;28173;51.376;6.760;2022-10-31T11:36:58;31.55;;;14.63;;
42538;SDS011;28173;51.376;6.760;2022-10-31T11:39:43;26.73;;;14.13;;
42538;SDS011;28173;51.376;6.760;2022-10-31T11:42:26;26.92;;;13.90;;
42538;SDS011;28173;51.376;6.760;2022-10-31T11:44:57;23.38;;;13.85;;
42538;SDS011;28173;51.376;6.760;2022-10-31T11:47:28;24.17;;;13.63;;
42538;SDS011;28173;51.376;6.760;2022-10-31T11:51:10;28.08;;;13.65;;
42538;SDS011;28173;51.376;6.760;2022-10-31T11:56:04;26.00;;;13.15;;
42538;SDS011;28173;51.376;6.760;2022-10-31T11:58:43;24.48;;;12.60;;
42538;SDS011;28173;51.376;6.760;2022-10-31T12:01:27;23.80;;;12.85;;
42538;SDS011;28173;51.376;6.760;2022-10-31T12:07:53;19.63;;;11.18;;
42538;SDS011;28173;51.376;6.760;2022-10-31T12:16:31;21.27;;;11.50;;
42538;SDS011;28173;51.376;6.760;2022-10-31T12:26:42;23.50;;;11.32;;
42538;SDS011;28173;51.376;6.760;2022-10-31T12:39:44;15.32;;;7.85;;
42538;SDS011;28173;51.376;6.760;2022-10-31T12:45:58;14.23;;;6.53;;
42538;SDS011;28173;51.376;6.760;2022-10-31T12:57:57;14.57;;;6.00;;
42538;SDS011;28173;51.376;6.760;2022-10-31T13:00:51;16.92;;;5.80;;
42538;SDS011;28173;51.376;6.760;2022-10-31T13:03:44;13.88;;;6.13;;
42538;SDS011;28173;51.376;6.760;2022-10-31T13:07:00;14.48;;;5.53;;
42538;SDS011;28173;51.376;6.760;2022-10-31T13:10:02;15.75;;;5.70;;
42538;SDS011;28173;51.376;6.760;2022-10-31T13:12:37;21.98;;;5.95;;
42538;SDS011;28173;51.376;6.760;2022-10-31T13:25:45;14.45;;;5.78;;
42538;SDS011;28173;51.376;6.760;2022-10-31T13:45:24;13.23;;;4.22;;
42538;SDS011;28173;51.376;6.760;2022-10-31T13:48:29;12.57;;;4.93;;
42538;SDS011;28173;51.376;6.760;2022-10-31T13:51:11;17.33;;;6.78;;
42538;SDS011;28173;51.376;6.760;2022-10-31T13:53:58;13.95;;;5.13;;
42538;SDS011;28173;51.376;6.760;2022-10-31T13:56:28;11.27;;;5.75;;
42538;SDS011;28173;51.376;6.760;2022-10-31T14:01:46;13.57;;;6.13;;
42538;SDS011;28173;51.376;6.760;2022-10-31T14:04:46;11.48;;;5.60;;
42538;SDS011;28173;51.376;6.760;2022-10-31T14:07:21;13.80;;;5.68;;
42538;SDS011;28173;51.376;6.760;2022-10-31T14:10:05;11.52;;;5.55;;
42538;SDS011;28173;51.376;6.760;2022-10-31T14:12:46;11.68;;;4.90;;
42538;SDS011;28173;51.376;6.760;2022-10-31T14:15:36;12.27;;;5.47;;
42538;SDS011;28173;51.376;6.760;2022-10-31T14:18:36;12.30;;;5.05;;
42538;SDS011;28173;51.376;6.760;2022-10-31T14:21:15;18.92;;;5.65;;
42538;SDS011;28173;51.376;6.760;2022-10-31T14:23:52;12.70;;;6.43;;
42538;SDS011;28173;51.376;6.760;2022-10-31T14:26:32;13.63;;;6.15;;
42538;SDS011;28173;51.376;6.760;2022-10-31T14:31:51;13.15;;;4.90;;
42538;SDS011;28173;51.376;6.760;2022-10-31T14:34:28;10.40;;;5.03;;
42538;SDS011;28173;51.376;6.760;2022-10-31T14:39:50;13.30;;;5.53;;
42538;SDS011;28173;51.376;6.760;2022-10-31T14:51:12;12.20;;;4.35;;
42538;SDS011;28173;51.376;6.760;2022-10-31T14:56:47;12.88;;;4.60;;
42538;SDS011;28173;51.376;6.760;2022-10-31T14:59:18;15.40;;;4.43;;
42538;SDS011;28173;51.376;6.760;2022-10-31T15:01:58;12.98;;;5.25;;
42538;SDS011;28173;51.376;6.760;2022-10-31T15:04:34;9.07;;;5.00;;
42538;SDS011;28173;51.376;6.760;2022-10-31T15:07:15;11.57;;;4.38;;
42538;SDS011;28173;51.376;6.760;2022-10-31T15:09:56;12.45;;;4.82;;
42538;SDS011;28173;51.376;6.760;2022-10-31T15:14:55;13.68;;;4.57;;
42538;SDS011;28173;51.376;6.760;2022-10-31T15:17:41;12.35;;;4.72;;
42538;SDS011;28173;51.376;6.760;2022-10-31T15:20:27;14.93;;;4.88;;
42538;SDS011;28173;51.376;6.760;2022-10-31T15:22:59;9.25;;;5.00;;
42538;SDS011;28173;51.376;6.760;2022-10-31T15:25:27;16.40;;;4.88;;
42538;SDS011;28173;51.376;6.760;2022-10-31T15:27:59;19.02;;;5.25;;
42538;SDS011;28173;51.376;6.760;2022-10-31T15:30:29;11.88;;;4.95;;
42538;SDS011;28173;51.376;6.760;2022-10-31T15:32:56;16.30;;;4.95;;
42538;SDS011;28173;51.376;6.760;2022-10-31T15:35:28;11.20;;;4.55;;
42538;SDS011;28173;51.376;6.760;2022-10-31T15:37:58;16.63;;;4.97;;
42538;SDS011;28173;51.376;6.760;2022-10-31T15:40:36;12.50;;;4.57;;
42538;SDS011;28173;51.376;6.760;2022-10-31T15:43:05;12.23;;;4.35;;
42538;SDS011;28173;51.376;6.760;2022-10-31T15:45:36;16.67;;;4.25;;
42538;SDS011;28173;51.376;6.760;2022-10-31T15:48:15;11.63;;;4.47;;
42538;SDS011;28173;51.376;6.760;2022-10-31T15:50:52;13.63;;;4.28;;
42538;SDS011;28173;51.376;6.760;2022-10-31T15:57:10;11.50;;;4.80;;
42538;SDS011;28173;51.376;6.760;2022-10-31T15:59:42;15.52;;;4.47;;
42538;SDS011;28173;51.376;6.760;2022-10-31T16:02:24;17.58;;;4.70;;
42538;SDS011;28173;51.376;6.760;2022-10-31T16:05:01;10.85;;;3.88;;
42538;SDS011;28173;51.376;6.760;2022-10-31T16:07:51;10.90;;;4.03;;
42538;SDS011;28173;51.376;6.760;2022-10-31T16:14:24;15.52;;;4.55;;
42538;SDS011;28173;51.376;6.760;2022-10-31T16:20:27;13.20;;;4.68;;
42538;SDS011;28173;51.376;6.760;2022-10-31T16:31:38;12.43;;;5.32;;
42538;SDS011;28173;51.376;6.760;2022-10-31T16:34:59;13.25;;;6.00;;
42538;SDS011;28173;51.376;6.760;2022-10-31T16:37:50;12.02;;;5.13;;
42538;SDS011;28173;51.376;6.760;2022-10-31T16:47:16;16.50;;;5.50;;
42538;SDS011;28173;51.376;6.760;2022-10-31T16:50:41;14.98;;;5.13;;
42538;SDS011;28173;51.376;6.760;2022-10-31T16:53:10;18.17;;;5.65;;
42538;SDS011;28173;51.376;6.760;2022-10-31T16:58:31;16.52;;;6.57;;
42538;SDS011;28173;51.376;6.760;2022-10-31T17:01:23;29.35;;;6.65;;
42538;SDS011;28173;51.376;6.760;2022-10-31T17:03:56;21.30;;;6.30;;
42538;SDS011;28173;51.376;6.760;2022-10-31T17:20:29;17.80;;;12.00;;
42538;SDS011;28173;51.376;6.760;2022-10-31T17:22:57;17.33;;;9.18;;
42538;SDS011;28173;51.376;6.760;2022-10-31T17:25:26;15.55;;;7.00;;
42538;SDS011;28173;51.376;6.760;2022-10-31T17:27:55;14.68;;;7.20;;
42538;SDS011;28173;51.376;6.760;2022-10-31T17:30:27;11.55;;;4.38;;
42538;SDS011;28173;51.376;6.760;2022-10-31T17:32:54;11.75;;;4.30;;
42538;SDS011;28173;51.376;6.760;2022-10-31T17:35:21;8.23;;;4.38;;
42538;SDS011;28173;51.376;6.760;2022-10-31T17:37:48;13.55;;;5.03;;
42538;SDS011;28173;51.376;6.760;2022-10-31T17:40:20;17.85;;;4.72;;
42538;SDS011;28173;51.376;6.760;2022-10-31T17:42:51;16.65;;;8.60;;
42538;SDS011;28173;51.376;6.760;2022-10-31T17:45:20;10.52;;;4.45;;
42538;SDS011;28173;51.376;6.760;2022-10-31T17:47:51;11.77;;;4.28;;
42538;SDS011;28173;51.376;6.760;2022-10-31T17:50:19;19.73;;;4.43;;
42538;SDS011;28173;51.376;6.760;2022-10-31T17:52:49;14.00;;;4.78;;
42538;SDS011;28173;51.376;6.760;2022-10-31T17:55:17;14.95;;;4.38;;
42538;SDS011;28173;51.376;6.760;2022-10-31T17:57:44;11.38;;;4.13;;
42538;SDS011;28173;51.376;6.760;2022-10-31T18:00:13;8.95;;;3.75;;
42538;SDS011;28173;51.376;6.760;2022-10-31T18:02:42;9.55;;;3.80;;
42538;SDS011;28173;51.376;6.760;2022-10-31T18:05:12;10.80;;;3.92;;
42538;SDS011;28173;51.376;6.760;2022-10-31T18:07:40;10.45;;;4.78;;
42538;SDS011;28173;51.376;6.760;2022-10-31T18:10:07;12.52;;;4.20;;
42538;SDS011;28173;51.376;6.760;2022-10-31T18:12:35;11.25;;;3.50;;
42538;SDS011;28173;51.376;6.760;2022-10-31T18:15:13;12.45;;;3.83;;
42538;SDS011;28173;51.376;6.760;2022-10-31T18:17:55;8.10;;;3.55;;
42538;SDS011;28173;51.376;6.760;2022-10-31T18:20:27;9.88;;;3.80;;
42538;SDS011;28173;51.376;6.760;2022-10-31T18:22:56;12.77;;;3.90;;
42538;SDS011;28173;51.376;6.760;2022-10-31T18:25:26;13.30;;;4.40;;
42538;SDS011;28173;51.376;6.760;2022-10-31T18:27:53;8.13;;;3.70;;
42538;SDS011;28173;51.376;6.760;2022-10-31T18:30:29;13.90;;;3.92;;
42538;SDS011;28173;51.376;6.760;2022-10-31T18:32:58;12.75;;;3.85;;
42538;SDS011;28173;51.376;6.760;2022-10-31T18:35:25;17.75;;;5.68;;
42538;SDS011;28173;51.376;6.760;2022-10-31T18:37:52;11.23;;;5.90;;
42538;SDS011;28173;51.376;6.760;2022-10-31T18:40:24;20.30;;;4.22;;
42538;SDS011;28173;51.376;6.760;2022-10-31T18:42:51;18.80;;;6.05;;
42538;SDS011;28173;51.376;6.760;2022-10-31T18:45:20;9.55;;;3.97;;
42538;SDS011;28173;51.376;6.760;2022-10-31T18:48:12;14.05;;;3.92;;
42538;SDS011;28173;51.376;6.760;2022-10-31T18:50:47;10.05;;;4.07;;
42538;SDS011;28173;51.376;6.760;2022-10-31T18:53:17;9.75;;;3.90;;
42538;SDS011;28173;51.376;6.760;2022-10-31T18:55:47;14.27;;;4.10;;
42538;SDS011;28173;51.376;6.760;2022-10-31T18:58:18;9.55;;;3.58;;
42538;SDS011;28173;51.376;6.760;2022-10-31T19:00:53;10.88;;;4.05;;
42538;SDS011;28173;51.376;6.760;2022-10-31T19:03:20;13.32;;;4.03;;
42538;SDS011;28173;51.376;6.760;2022-10-31T19:05:53;10.07;;;3.67;;
42538;SDS011;28173;51.376;6.760;2022-10-31T19:08:22;10.93;;;3.70;;
42538;SDS011;28173;51.376;6.760;2022-10-31T19:10:51;14.35;;;4.80;;
42538;SDS011;28173;51.376;6.760;2022-10-31T19:13:20;15.15;;;4.55;;
42538;SDS011;28173;51.376;6.760;2022-10-31T19:15:48;17.83;;;4.05;;
42538;SDS011;28173;51.376;6.760;2022-10-31T19:18:14;12.43;;;4.45;;
42538;SDS011;28173;51.376;6.760;2022-10-31T19:20:41;7.10;;;3.70;;
42538;SDS011;28173;51.376;6.760;2022-10-31T19:23:08;16.92;;;4.97;;
42538;SDS011;28173;51.376;6.760;2022-10-31T19:25:34;15.32;;;4.53;;
42538;SDS011;28173;51.376;6.760;2022-10-31T19:28:02;12.70;;;4.65;;
42538;SDS011;28173;51.376;6.760;2022-10-31T19:30:29;12.52;;;5.45;;
42538;SDS011;28173;51.376;6.760;2022-10-31T19:32:57;11.82;;;4.43;;
42538;SDS011;28173;51.376;6.760;2022-10-31T19:35:24;11.90;;;4.25;;
42538;SDS011;28173;51.376;6.760;2022-10-31T19:37:51;12.02;;;4.18;;
42538;SDS011;28173;51.376;6.760;2022-10-31T19:40:21;16.05;;;4.65;;
42538;SDS011;28173;51.376;6.760;2022-10-31T19:42:47;11.77;;;4.07;;
42538;SDS011;28173;51.376;6.760;2022-10-31T19:45:14;13.25;;;4.43;;